Time;durP1;ratioP1;P1;durP2;ratioP2;P2;SDS_P1;SDS_P2;PMS_P1;PMS_P2;Temp;Humidity;BMP_temperature;BMP_pressure;BME280_temperature;BME280_humidity;BME280_pressure;Samples;Min_cycle;Max_cycle;Signal;HPM_P1;HPM_P2
2022/10/02 00:00:01;;;;;;;7.57;2.05;;;;;;;;;;4978175;28;20054;-66
2022/10/02 00:02:51;;;;;;;5.07;2.00;;;;;;;;;;4991987;28;20050;-67
2022/10/02 00:05:39;;;;;;;7.40;2.35;;;;;;;;;;4983410;28;20047;-66
2022/10/02 00:08:11;;;;;;;6.20;2.08;;;;;;;;;;4972584;28;20051;-66
2022/10/02 00:10:49;;;;;;;5.40;1.75;;;;;;;;;;4973320;28;20442;-66
2022/10/02 00:13:27;;;;;;;7.93;1.77;;;;;;;;;;4983671;28;20113;-66
2022/10/02 00:15:54;;;;;;;4.35;1.92;;;;;;;;;;4960362;28;20395;-66
2022/10/02 00:18:28;;;;;;;6.65;2.17;;;;;;;;;;4992286;28;20101;-67
2022/10/02 00:21:37;;;;;;;4.88;1.67;;;;;;;;;;4991764;28;20046;-66
2022/10/02 00:24:10;;;;;;;7.90;1.70;;;;;;;;;;4975385;28;20050;-67
2022/10/02 00:26:58;;;;;;;6.50;1.38;;;;;;;;;;4975654;28;20101;-67
2022/10/02 00:29:49;;;;;;;7.88;1.50;;;;;;;;;;4971775;28;20530;-67
2022/10/02 00:32:34;;;;;;;6.60;1.50;;;;;;;;;;4973513;28;20054;-66
2022/10/02 00:35:19;;;;;;;9.95;1.98;;;;;;;;;;4973499;28;20054;-66
2022/10/02 00:38:07;;;;;;;4.38;1.88;;;;;;;;;;4973040;28;20050;-66
2022/10/02 00:40:46;;;;;;;7.88;1.80;;;;;;;;;;4975121;28;20047;-67
2022/10/02 00:43:19;;;;;;;10.45;2.50;;;;;;;;;;4976933;28;20573;-66
2022/10/02 00:46:27;;;;;;;7.25;1.83;;;;;;;;;;4977047;28;20051;-66
2022/10/02 00:49:11;;;;;;;9.15;1.73;;;;;;;;;;4970229;28;20083;-66
2022/10/02 00:51:44;;;;;;;7.22;2.30;;;;;;;;;;4989544;28;20074;-66
2022/10/02 00:54:21;;;;;;;9.43;2.80;;;;;;;;;;4999347;28;20050;-66
2022/10/02 00:57:09;;;;;;;8.68;2.10;;;;;;;;;;4999282;28;20293;-66
2022/10/02 00:59:55;;;;;;;7.75;2.05;;;;;;;;;;5016229;28;20038;-66
2022/10/02 01:02:24;;;;;;;7.43;1.60;;;;;;;;;;5015975;28;20425;-66
2022/10/02 01:04:51;;;;;;;8.05;2.25;;;;;;;;;;5017088;28;20062;-66
2022/10/02 01:07:18;;;;;;;3.88;1.50;;;;;;;;;;5000475;28;20082;-66
2022/10/02 01:09:44;;;;;;;6.10;1.85;;;;;;;;;;5016105;28;20050;-66
2022/10/02 01:12:11;;;;;;;3.00;1.70;;;;;;;;;;5016483;28;20050;-66
2022/10/02 01:14:39;;;;;;;5.55;1.30;;;;;;;;;;4999112;28;20046;-66
2022/10/02 01:17:20;;;;;;;7.07;1.60;;;;;;;;;;5018140;28;20043;-66
2022/10/02 01:19:46;;;;;;;6.15;1.67;;;;;;;;;;4971240;28;20074;-66
2022/10/02 01:22:30;;;;;;;5.22;1.60;;;;;;;;;;4994539;28;20062;-66
2022/10/02 01:24:58;;;;;;;7.75;1.80;;;;;;;;;;5018203;28;20035;-67
2022/10/02 01:27:25;;;;;;;6.03;1.70;;;;;;;;;;5015450;28;20039;-66
2022/10/02 01:29:59;;;;;;;4.95;1.58;;;;;;;;;;4982958;28;20102;-67
2022/10/02 01:32:26;;;;;;;6.07;1.50;;;;;;;;;;4982891;28;20062;-66
2022/10/02 01:34:54;;;;;;;5.95;1.65;;;;;;;;;;4999506;28;20038;-66
2022/10/02 01:37:23;;;;;;;6.25;1.73;;;;;;;;;;4985053;28;20050;-67
2022/10/02 01:39:49;;;;;;;7.55;1.77;;;;;;;;;;4983757;28;20105;-67
2022/10/02 01:42:16;;;;;;;5.10;1.35;;;;;;;;;;4979184;28;20054;-67
2022/10/02 01:44:43;;;;;;;8.32;2.05;;;;;;;;;;4978999;28;20128;-67
2022/10/02 01:47:12;;;;;;;8.73;1.40;;;;;;;;;;4960767;28;20073;-67
2022/10/02 01:49:51;;;;;;;10.63;1.90;;;;;;;;;;4978116;28;20058;-67
2022/10/02 01:52:39;;;;;;;5.18;1.77;;;;;;;;;;4997067;28;20100;-67
2022/10/02 01:55:14;;;;;;;4.78;1.58;;;;;;;;;;4995990;28;20469;-67
2022/10/02 01:57:48;;;;;;;7.22;1.80;;;;;;;;;;4976672;28;20046;-68
2022/10/02 02:00:21;;;;;;;8.95;1.75;;;;;;;;;;4994595;28;20047;-68
2022/10/02 02:03:01;;;;;;;;;;;;;;;;;;4984731;28;20469;-67
2022/10/02 02:05:49;;;;;;;7.20;1.65;;;;;;;;;;4977223;28;19922;-67
2022/10/02 02:08:36;;;;;;;3.63;1.27;;;;;;;;;;4994358;28;20081;-67
2022/10/02 02:11:10;;;;;;;3.22;1.13;;;;;;;;;;4969590;28;20053;-68
2022/10/02 02:14:12;;;;;;;4.85;0.95;;;;;;;;;;4995307;28;20487;-68
2022/10/02 02:16:56;;;;;;;6.70;1.42;;;;;;;;;;4991960;28;20054;-67
2022/10/02 02:19:30;;;;;;;4.97;1.50;;;;;;;;;;4996304;28;20054;-68
2022/10/02 02:21:58;;;;;;;3.50;1.40;;;;;;;;;;4979422;28;20042;-66
2022/10/02 02:24:31;;;;;;;5.40;1.25;;;;;;;;;;4977990;28;20506;-67
2022/10/02 02:26:59;;;;;;;5.63;1.58;;;;;;;;;;4961732;28;20058;-67
2022/10/02 02:29:28;;;;;;;7.20;1.73;;;;;;;;;;4977180;28;20046;-67
2022/10/02 02:31:56;;;;;;;4.97;1.30;;;;;;;;;;4978232;28;20414;-67
2022/10/02 02:34:34;;;;;;;5.60;1.20;;;;;;;;;;4994861;28;20049;-67
2022/10/02 02:37:05;;;;;;;5.55;1.15;;;;;;;;;;4994387;28;20108;-68
2022/10/02 02:40:00;;;;;;;7.63;1.60;;;;;;;;;;4961305;28;20054;-68
2022/10/02 02:42:35;;;;;;;6.05;1.23;;;;;;;;;;4977501;28;20051;-67
2022/10/02 02:45:12;;;;;;;5.55;1.50;;;;;;;;;;4977598;28;20050;-67
2022/10/02 02:47:52;;;;;;;6.13;1.33;;;;;;;;;;4977053;28;20113;-67
2022/10/02 02:50:22;;;;;;;4.70;1.08;;;;;;;;;;4963058;28;20062;-67
2022/10/02 02:53:02;;;;;;;4.05;1.60;;;;;;;;;;4973900;28;20102;-67
2022/10/02 02:55:35;;;;;;;7.07;1.40;;;;;;;;;;4989115;28;20058;-67
2022/10/02 02:58:09;;;;;;;3.63;1.08;;;;;;;;;;4973627;28;20129;-68
2022/10/02 03:00:36;;;;;;;5.28;1.65;;;;;;;;;;4976794;28;20105;-66
2022/10/02 03:03:02;;;;;;;5.28;1.30;;;;;;;;;;4993287;28;20058;-66
2022/10/02 03:05:29;;;;;;;6.55;1.60;;;;;;;;;;4994073;28;20104;-66
2022/10/02 03:07:58;;;;;;;4.88;1.40;;;;;;;;;;4961590;28;20105;-67
2022/10/02 03:11:03;;;;;;;4.13;1.10;;;;;;;;;;4993614;28;20062;-67
2022/10/02 03:13:49;;;;;;;4.88;1.40;;;;;;;;;;4993683;28;20108;-66
2022/10/02 03:16:22;;;;;;;4.53;1.30;;;;;;;;;;4993598;28;20437;-67
2022/10/02 03:19:08;;;;;;;5.22;1.10;;;;;;;;;;4993321;28;20058;-68
2022/10/02 03:21:39;;;;;;;4.68;2.05;;;;;;;;;;4978693;28;20046;-67
2022/10/02 03:24:28;;;;;;;4.90;1.33;;;;;;;;;;4983120;28;20104;-68
2022/10/02 03:27:13;;;;;;;4.82;1.58;;;;;;;;;;5003530;28;20050;-68
2022/10/02 03:29:55;;;;;;;4.57;1.60;;;;;;;;;;4973747;28;20054;-67
2022/10/02 03:32:22;;;;;;;9.90;1.63;;;;;;;;;;4973397;28;20054;-67
2022/10/02 03:34:48;;;;;;;4.00;1.38;;;;;;;;;;4957129;28;20058;-67
2022/10/02 03:37:16;;;;;;;10.43;1.65;;;;;;;;;;4973958;28;20113;-67
2022/10/02 03:39:43;;;;;;;6.20;2.28;;;;;;;;;;4985502;28;20182;-67
2022/10/02 03:42:11;;;;;;;5.32;1.88;;;;;;;;;;4993364;28;20047;-66
2022/10/02 03:44:38;;;;;;;3.20;1.33;;;;;;;;;;4959822;28;20054;-67
2022/10/02 03:47:04;;;;;;;4.43;1.20;;;;;;;;;;4993016;28;20117;-67
2022/10/02 03:49:31;;;;;;;8.68;1.60;;;;;;;;;;4992851;28;20501;-67
2022/10/02 03:51:58;;;;;;;6.60;1.38;;;;;;;;;;4996264;28;20053;-67
2022/10/02 03:54:24;;;;;;;5.47;1.50;;;;;;;;;;5006794;28;20103;-68
2022/10/02 03:56:55;;;;;;;4.03;1.50;;;;;;;;;;4947500;28;20510;-67
2022/10/02 04:00:01;;;;;;;5.50;1.75;;;;;;;;;;4973730;28;20502;-66
2022/10/02 04:02:39;;;;;;;7.85;1.75;;;;;;;;;;4942248;28;20050;-67
2022/10/02 04:05:23;;;;;;;5.10;1.83;;;;;;;;;;4956551;28;20055;-67
2022/10/02 04:07:54;;;;;;;9.10;1.50;;;;;;;;;;4986410;28;20051;-67
2022/10/02 04:10:36;;;;;;;9.95;2.10;;;;;;;;;;4941384;28;20105;-66
2022/10/02 04:13:20;;;;;;;6.72;2.00;;;;;;;;;;4968129;28;20057;-66
2022/10/02 04:16:14;;;;;;;7.22;1.38;;;;;;;;;;4972221;28;20117;-66
2022/10/02 04:19:01;;;;;;;5.20;1.50;;;;;;;;;;4973143;28;20054;-66
2022/10/02 04:22:02;;;;;;;8.38;1.70;;;;;;;;;;4972572;28;20473;-67
2022/10/02 04:24:32;;;;;;;9.75;1.75;;;;;;;;;;4972165;28;20287;-68
2022/10/02 04:27:04;;;;;;;10.10;1.42;;;;;;;;;;4973585;28;20055;-67
2022/10/02 04:29:37;;;;;;;5.95;1.23;;;;;;;;;;4973784;28;20070;-66
2022/10/02 04:32:17;;;;;;;6.57;1.60;;;;;;;;;;4972013;28;20047;-67
2022/10/02 04:34:43;;;;;;;6.63;1.40;;;;;;;;;;4971938;28;20499;-67
2022/10/02 04:37:24;;;;;;;6.75;1.83;;;;;;;;;;4956285;28;20121;-68
2022/10/02 04:40:06;;;;;;;9.40;1.70;;;;;;;;;;4971983;28;20113;-67
2022/10/02 04:42:51;;;;;;;5.97;1.60;;;;;;;;;;4971919;28;20106;-67
2022/10/02 04:45:59;;;;;;;6.65;1.75;;;;;;;;;;4973266;28;20572;-67
2022/10/02 04:48:35;;;;;;;6.88;1.80;;;;;;;;;;4945149;28;20462;-66
2022/10/02 04:51:30;;;;;;;5.93;1.88;;;;;;;;;;4973189;28;20046;-66
2022/10/02 04:54:30;;;;;;;5.55;1.30;;;;;;;;;;4973112;28;20050;-66
2022/10/02 04:56:57;;;;;;;7.30;1.92;;;;;;;;;;4973042;28;20055;-67
2022/10/02 04:59:52;;;;;;;6.05;1.52;;;;;;;;;;4972682;28;20110;-67
2022/10/02 05:02:53;;;;;;;7.38;1.50;;;;;;;;;;4951833;28;20552;-67
2022/10/02 05:05:25;;;;;;;18.98;2.00;;;;;;;;;;4973020;28;20477;-66
2022/10/02 05:07:59;;;;;;;6.28;1.75;;;;;;;;;;4972876;28;20047;-66
2022/10/02 05:10:49;;;;;;;7.30;1.70;;;;;;;;;;4991281;28;20449;-67
2022/10/02 05:13:30;;;;;;;6.95;1.63;;;;;;;;;;4992367;28;20047;-67
2022/10/02 05:16:11;;;;;;;5.80;1.48;;;;;;;;;;4992355;28;20054;-67
2022/10/02 05:18:46;;;;;;;11.70;3.95;;;;;;;;;;4976401;28;20182;-67
2022/10/02 05:21:19;;;;;;;5.43;2.50;;;;;;;;;;4992502;28;20046;-67
2022/10/02 05:23:49;;;;;;;;;;;;;;;;;;4975258;28;20058;-67
2022/10/02 05:26:47;;;;;;;6.80;1.80;;;;;;;;;;4994765;28;20286;-67
2022/10/02 05:29:32;;;;;;;2.92;1.75;;;;;;;;;;4981148;28;20105;-68
2022/10/02 05:32:23;;;;;;;6.10;1.77;;;;;;;;;;4996032;28;20046;-67
2022/10/02 05:35:02;;;;;;;7.03;2.30;;;;;;;;;;4995523;28;20468;-67
2022/10/02 05:37:43;;;;;;;6.07;1.20;;;;;;;;;;4995810;28;20058;-67
2022/10/02 05:40:42;;;;;;;7.22;2.30;;;;;;;;;;4995166;28;20501;-68
2022/10/02 05:43:18;;;;;;;7.63;2.25;;;;;;;;;;4966701;28;20050;-66
2022/10/02 05:45:55;;;;;;;7.43;1.90;;;;;;;;;;4962886;28;20378;-68
2022/10/02 05:48:40;;;;;;;8.32;2.60;;;;;;;;;;4962095;28;20100;-67
2022/10/02 05:51:35;;;;;;;7.05;2.15;;;;;;;;;;4980217;28;20050;-68
2022/10/02 05:54:05;;;;;;;5.18;1.80;;;;;;;;;;4970395;28;20054;-68
2022/10/02 05:56:39;;;;;;;9.30;2.17;;;;;;;;;;4962628;28;20050;-68
2022/10/02 05:59:08;;;;;;;4.82;1.77;;;;;;;;;;4977778;28;20096;-68
2022/10/02 06:01:37;;;;;;;6.18;1.60;;;;;;;;;;4977676;28;20058;-68
2022/10/02 06:04:15;;;;;;;6.95;1.52;;;;;;;;;;4977906;28;20046;-67
2022/10/02 06:06:50;;;;;;;6.72;1.90;;;;;;;;;;4995248;28;20058;-68
2022/10/02 06:09:28;;;;;;;5.60;2.15;;;;;;;;;;4975310;28;20073;-67
2022/10/02 06:12:03;;;;;;;5.93;2.08;;;;;;;;;;4975716;28;20050;-67
2022/10/02 06:14:38;;;;;;;8.75;2.10;;;;;;;;;;4975370;28;20501;-67
2022/10/02 06:17:11;;;;;;;8.77;2.20;;;;;;;;;;4992966;28;20050;-66
2022/10/02 06:19:42;;;;;;;8.98;1.80;;;;;;;;;;4959622;28;20497;-66
2022/10/02 06:22:19;;;;;;;6.32;2.33;;;;;;;;;;4959214;28;20085;-67
2022/10/02 06:25:18;;;;;;;7.90;2.08;;;;;;;;;;4975049;28;20081;-68
2022/10/02 06:27:45;;;;;;;8.60;2.10;;;;;;;;;;4936542;28;20051;-67
2022/10/02 06:30:14;;;;;;;6.68;2.38;;;;;;;;;;4982885;28;20057;-66
2022/10/02 06:32:47;;;;;;;8.95;2.38;;;;;;;;;;4949384;28;20055;-66
2022/10/02 06:35:16;;;;;;;6.10;2.20;;;;;;;;;;4974010;28;20050;-67
2022/10/02 06:38:23;;;;;;;8.30;3.42;;;;;;;;;;4973904;28;20054;-67
2022/10/02 06:41:19;;;;;;;9.30;3.30;;;;;;;;;;4970853;28;20053;-65
2022/10/02 06:44:26;;;;;;;8.75;3.25;;;;;;;;;;4971479;28;20120;-67
2022/10/02 06:47:16;;;;;;;10.13;3.53;;;;;;;;;;4980440;28;20063;-66
2022/10/02 06:50:09;;;;;;;8.98;3.17;;;;;;;;;;4977207;28;20510;-67
2022/10/02 06:52:43;;;;;;;7.25;2.90;;;;;;;;;;4960186;28;20077;-66
2022/10/02 06:55:43;;;;;;;8.40;2.50;;;;;;;;;;4971231;28;20549;-67
2022/10/02 06:58:20;;;;;;;5.07;2.28;;;;;;;;;;4942529;28;20513;-67
2022/10/02 07:01:05;;;;;;;9.35;2.10;;;;;;;;;;4972204;28;20453;-66
2022/10/02 07:03:50;;;;;;;10.70;2.40;;;;;;;;;;4971338;28;20094;-67
2022/10/02 07:06:48;;;;;;;12.50;3.42;;;;;;;;;;4981293;28;20484;-66
2022/10/02 07:09:35;;;;;;;7.13;3.58;;;;;;;;;;4991652;28;20089;-67
2022/10/02 07:12:08;;;;;;;7.95;3.15;;;;;;;;;;4974058;28;20042;-67
2022/10/02 07:14:59;;;;;;;12.45;3.15;;;;;;;;;;4991438;28;20532;-67
2022/10/02 07:17:48;;;;;;;9.90;3.40;;;;;;;;;;4991552;28;20046;-67
2022/10/02 07:20:28;;;;;;;6.63;2.70;;;;;;;;;;4997825;28;20509;-67
2022/10/02 07:23:26;;;;;;;6.47;2.92;;;;;;;;;;4970736;28;20506;-68
2022/10/02 07:26:12;;;;;;;8.45;2.30;;;;;;;;;;4954662;28;20047;-67
2022/10/02 07:28:42;;;;;;;9.43;2.70;;;;;;;;;;4970763;28;20114;-67
2022/10/02 07:31:31;;;;;;;10.05;2.80;;;;;;;;;;4972069;28;20054;-66
2022/10/02 07:34:13;;;;;;;17.20;3.65;;;;;;;;;;4970557;28;20574;-66
2022/10/02 07:36:58;;;;;;;10.05;2.95;;;;;;;;;;4971945;28;20526;-66
2022/10/02 07:39:34;;;;;;;7.75;2.38;;;;;;;;;;4970009;28;20058;-67
2022/10/02 07:42:25;;;;;;;6.80;2.40;;;;;;;;;;4971557;28;20047;-68
2022/10/02 07:45:04;;;;;;;6.57;2.63;;;;;;;;;;4971705;28;20054;-66
2022/10/02 07:47:52;;;;;;;5.75;2.90;;;;;;;;;;4970495;28;20644;-67
2022/10/02 07:50:43;;;;;;;7.75;3.25;;;;;;;;;;4973321;28;20051;-67
2022/10/02 07:53:16;;;;;;;7.20;2.60;;;;;;;;;;4970966;28;20502;-68
2022/10/02 07:55:43;;;;;;;;;;;;;;;;;;4972245;28;20054;-67
2022/10/02 07:58:14;;;;;;;3.88;2.72;;;;;;;;;;4972134;28;19921;-70
2022/10/02 08:00:48;;;;;;;7.93;3.47;;;;;;;;;;4951875;28;20097;-65
2022/10/02 08:03:20;;;;;;;6.70;4.15;;;;;;;;;;4983859;28;20058;-66
2022/10/02 08:05:48;;;;;;;5.15;4.15;;;;;;;;;;4965771;28;20077;-67
2022/10/02 08:08:17;;;;;;;11.07;4.88;;;;;;;;;;4983841;28;20469;-67
2022/10/02 08:10:46;;;;;;;9.60;4.50;;;;;;;;;;4980500;28;20175;-67
2022/10/02 08:13:19;;;;;;;8.13;4.03;;;;;;;;;;4948601;28;20051;-67
2022/10/02 08:15:49;;;;;;;11.50;5.13;;;;;;;;;;4982271;28;20090;-67
2022/10/02 08:18:36;;;;;;;8.98;4.00;;;;;;;;;;4949131;28;20116;-66
2022/10/02 08:21:12;;;;;;;13.68;4.60;;;;;;;;;;4981008;28;20058;-65
2022/10/02 08:23:44;;;;;;;16.55;7.15;;;;;;;;;;4979260;28;20053;-66
2022/10/02 08:26:18;;;;;;;11.27;5.45;;;;;;;;;;4978853;28;20113;-66
2022/10/02 08:29:00;;;;;;;2.90;2.30;;;;;;;;;;4983966;28;20058;-67
2022/10/02 08:31:31;;;;;;;7.55;2.83;;;;;;;;;;4980357;28;20054;-67
2022/10/02 08:34:18;;;;;;;8.93;2.88;;;;;;;;;;4982463;28;20051;-68
2022/10/02 08:37:15;;;;;;;6.70;2.40;;;;;;;;;;4985857;28;20057;-68
2022/10/02 08:40:13;;;;;;;4.75;2.22;;;;;;;;;;4983050;28;20054;-68
2022/10/02 08:43:07;;;;;;;7.43;3.03;;;;;;;;;;4984380;28;20098;-68
2022/10/02 08:45:33;;;;;;;;;;;;;;;;;;4982528;28;20062;-67
2022/10/02 08:48:38;;;;;;;10.55;3.17;;;;;;;;;;4984518;28;20012;-67
2022/10/02 08:51:33;;;;;;;16.35;4.20;;;;;;;;;;4970741;28;20468;-67
2022/10/02 08:54:32;;;;;;;8.80;3.03;;;;;;;;;;4981702;28;20115;-67
2022/10/02 08:57:36;;;;;;;10.20;3.47;;;;;;;;;;4978212;28;20086;-67
2022/10/02 09:00:18;;;;;;;8.63;2.63;;;;;;;;;;4981899;28;20452;-68
2022/10/02 09:03:03;;;;;;;9.27;2.47;;;;;;;;;;4986131;28;20108;-68
2022/10/02 09:05:48;;;;;;;8.13;2.45;;;;;;;;;;4985261;28;20314;-65
2022/10/02 09:08:18;;;;;;;6.45;2.63;;;;;;;;;;4982402;28;20042;-67
2022/10/02 09:10:51;;;;;;;8.55;2.72;;;;;;;;;;4985597;28;20055;-68
2022/10/02 09:13:22;;;;;;;8.07;2.10;;;;;;;;;;4986493;28;20516;-66
2022/10/02 09:16:09;;;;;;;7.88;2.30;;;;;;;;;;4986715;28;20050;-68
2022/10/02 09:19:14;;;;;;;10.75;3.58;;;;;;;;;;4971382;28;20069;-67
2022/10/02 09:22:15;;;;;;;10.05;2.47;;;;;;;;;;4988499;28;20046;-67
2022/10/02 09:25:16;;;;;;;5.90;2.40;;;;;;;;;;4967250;28;20144;-66
2022/10/02 09:27:57;;;;;;;5.93;2.13;;;;;;;;;;4989007;28;20457;-68
2022/10/02 09:30:43;;;;;;;8.07;2.50;;;;;;;;;;4985715;28;20055;-66
2022/10/02 09:33:47;;;;;;;6.40;2.78;;;;;;;;;;4987923;28;20081;-67
2022/10/02 09:36:56;;;;;;;4.80;1.90;;;;;;;;;;4988201;28;20058;-67
2022/10/02 09:39:41;;;;;;;3.47;1.60;;;;;;;;;;4985490;28;20494;-66
2022/10/02 09:42:24;;;;;;;5.15;1.35;;;;;;;;;;4988860;28;20054;-68
2022/10/02 09:45:09;;;;;;;4.75;1.98;;;;;;;;;;4987849;28;20457;-66
2022/10/02 09:48:19;;;;;;;3.42;1.58;;;;;;;;;;4987124;28;20046;-67
2022/10/02 09:51:25;;;;;;;5.50;1.52;;;;;;;;;;4962205;28;20078;-67
2022/10/02 09:54:20;;;;;;;2.47;1.60;;;;;;;;;;4969752;28;20050;-67
2022/10/02 09:57:02;;;;;;;4.68;1.90;;;;;;;;;;4987239;28;20062;-67
2022/10/02 09:59:47;;;;;;;4.78;2.15;;;;;;;;;;4968749;28;20086;-66
2022/10/02 10:02:24;;;;;;;2.65;1.55;;;;;;;;;;4989305;28;20073;-67
2022/10/02 10:05:09;;;;;;;4.93;1.60;;;;;;;;;;4968309;28;20049;-66
2022/10/02 10:07:50;;;;;;;4.75;1.90;;;;;;;;;;4985671;28;20054;-67
2022/10/02 10:10:42;;;;;;;5.30;2.08;;;;;;;;;;4986960;28;20296;-68
2022/10/02 10:13:31;;;;;;;4.47;1.95;;;;;;;;;;4987775;28;20077;-67
2022/10/02 10:16:02;;;;;;;3.38;1.88;;;;;;;;;;4985145;28;20116;-66
2022/10/02 10:19:01;;;;;;;3.10;2.33;;;;;;;;;;4985757;28;20446;-67
2022/10/02 10:21:40;;;;;;;2.70;2.30;;;;;;;;;;4987245;28;20053;-66
2022/10/02 10:24:38;;;;;;;7.10;3.05;;;;;;;;;;4985970;28;20109;-67
2022/10/02 10:27:37;;;;;;;4.45;2.10;;;;;;;;;;4984418;28;20121;-67
2022/10/02 10:30:13;;;;;;;2.10;1.27;;;;;;;;;;4980661;28;20473;-66
2022/10/02 10:33:15;;;;;;;3.30;1.30;;;;;;;;;;4983589;28;20568;-66
2022/10/02 10:35:52;;;;;;;2.20;1.45;;;;;;;;;;4962218;28;20082;-67
2022/10/02 10:38:50;;;;;;;3.28;1.35;;;;;;;;;;4967794;28;20050;-66
2022/10/02 10:41:48;;;;;;;2.75;1.00;;;;;;;;;;4983045;28;20081;-67
2022/10/02 10:44:23;;;;;;;1.20;0.90;;;;;;;;;;4991189;28;20050;-66
2022/10/02 10:47:14;;;;;;;0.90;0.80;;;;;;;;;;4991944;28;20050;-67
2022/10/02 10:50:18;;;;;;;2.80;1.00;;;;;;;;;;4983914;28;20109;-67
2022/10/02 10:53:23;;;;;;;2.28;1.20;;;;;;;;;;4983381;28;20054;-67
2022/10/02 10:56:16;;;;;;;3.50;1.25;;;;;;;;;;4975567;28;20050;-68
2022/10/02 10:59:15;;;;;;;2.75;1.20;;;;;;;;;;4984999;28;20462;-67
2022/10/02 11:02:01;;;;;;;1.23;1.10;;;;;;;;;;4983431;28;20449;-66
2022/10/02 11:04:51;;;;;;;1.23;1.10;;;;;;;;;;4982973;28;20485;-66
2022/10/02 11:07:49;;;;;;;1.92;0.95;;;;;;;;;;4983699;28;20581;-66
2022/10/02 11:10:30;;;;;;;1.63;1.10;;;;;;;;;;4984095;28;20054;-66
2022/10/02 11:13:12;;;;;;;1.60;1.50;;;;;;;;;;4981388;28;20496;-67
2022/10/02 11:16:07;;;;;;;2.63;2.30;;;;;;;;;;4985090;28;20223;-67
2022/10/02 11:18:43;;;;;;;2.63;1.65;;;;;;;;;;4984304;28;20124;-66
2022/10/02 11:21:24;;;;;;;1.45;1.35;;;;;;;;;;4981810;28;20054;-66
2022/10/02 11:24:03;;;;;;;2.78;1.35;;;;;;;;;;4983650;28;20053;-67
2022/10/02 11:26:39;;;;;;;1.95;1.20;;;;;;;;;;4996767;28;20050;-67
2022/10/02 11:29:33;;;;;;;1.73;1.08;;;;;;;;;;4998617;28;20054;-67
2022/10/02 11:32:02;;;;;;;2.45;1.08;;;;;;;;;;4978969;28;20070;-67
2022/10/02 11:34:39;;;;;;;1.50;1.40;;;;;;;;;;4995440;28;20046;-68
2022/10/02 11:37:37;;;;;;;3.13;1.30;;;;;;;;;;4986301;28;20197;-68
2022/10/02 11:40:24;;;;;;;2.83;0.98;;;;;;;;;;4971047;28;20052;-67
2022/10/02 11:43:14;;;;;;;2.15;1.10;;;;;;;;;;4985890;28;20047;-67
2022/10/02 11:45:47;;;;;;;2.67;1.20;;;;;;;;;;4972246;28;20420;-67
2022/10/02 11:48:32;;;;;;;2.03;1.50;;;;;;;;;;4980447;28;20072;-67
2022/10/02 11:51:45;;;;;;;3.03;2.58;;;;;;;;;;4985541;28;20061;-67
2022/10/02 11:54:34;;;;;;;1.70;1.60;;;;;;;;;;4982482;28;20057;-67
2022/10/02 11:57:13;;;;;;;3.20;1.48;;;;;;;;;;4983009;28;20050;-68
2022/10/02 12:00:05;;;;;;;1.58;1.48;;;;;;;;;;4984936;28;20097;-67
2022/10/02 12:02:55;;;;;;;1.52;1.42;;;;;;;;;;4983746;28;20100;-67
2022/10/02 12:05:52;;;;;;;2.55;1.58;;;;;;;;;;4983705;28;20425;-67
2022/10/02 12:08:23;;;;;;;3.00;2.00;;;;;;;;;;4984196;28;20054;-67
2022/10/02 12:11:19;;;;;;;2.05;1.85;;;;;;;;;;4984884;28;20054;-68
2022/10/02 12:14:19;;;;;;;1.88;1.17;;;;;;;;;;4985130;28;20050;-67
2022/10/02 12:17:25;;;;;;;1.40;1.30;;;;;;;;;;4985174;28;20046;-67
2022/10/02 12:29:43;;;;;;;1.63;1.17;;;;;;;;;;4986198;28;20437;-66
2022/10/02 12:32:16;;;;;;;2.05;0.95;;;;;;;;;;4987171;28;20058;-67
2022/10/02 12:35:05;;;;;;;1.38;1.27;;;;;;;;;;4981420;28;20039;-67
2022/10/02 12:38:25;;;;;;;1.50;1.40;;;;;;;;;;4987698;28;20046;-67
2022/10/02 12:40:57;;;;;;;12.48;9.85;;;;;;;;;;4952346;28;20102;-67
2022/10/02 12:43:39;;;;;;;7.82;6.35;;;;;;;;;;4983905;28;20222;-68
2022/10/02 12:46:25;;;;;;;6.20;3.63;;;;;;;;;;4988763;28;20054;-68
2022/10/02 12:48:59;;;;;;;3.95;3.13;;;;;;;;;;4987858;28;20038;-67
2022/10/02 12:51:39;;;;;;;3.05;1.55;;;;;;;;;;4989365;28;20054;-68
2022/10/02 12:55:05;;;;;;;1.10;1.00;;;;;;;;;;4971132;28;20054;-66
2022/10/02 12:57:57;;;;;;;1.98;1.58;;;;;;;;;;4948396;29;20055;-66
2022/10/02 13:00:34;;;;;;;4.93;2.20;;;;;;;;;;4933274;29;20054;-67
2022/10/02 13:03:04;;;;;;;8.23;3.60;;;;;;;;;;4967244;28;20046;-67
2022/10/02 13:06:14;;;;;;;4.20;3.15;;;;;;;;;;4988057;28;20486;-66
2022/10/02 13:09:07;;;;;;;3.40;3.10;;;;;;;;;;4980137;28;20502;-67
2022/10/02 13:11:57;;;;;;;2.80;2.58;;;;;;;;;;4985631;28;20236;-67
2022/10/02 13:14:52;;;;;;;2.72;1.73;;;;;;;;;;4986019;28;20054;-66
2022/10/02 13:17:37;;;;;;;1.67;1.30;;;;;;;;;;4985928;28;20047;-67
2022/10/02 13:20:25;;;;;;;3.50;1.30;;;;;;;;;;4987584;28;20089;-67
2022/10/02 13:23:04;;;;;;;1.67;1.58;;;;;;;;;;4986825;28;20050;-66
2022/10/02 13:25:46;;;;;;;1.50;1.40;;;;;;;;;;4987162;28;20490;-67
2022/10/02 13:28:28;;;;;;;1.15;1.00;;;;;;;;;;4989277;28;20050;-67
2022/10/02 13:30:55;;;;;;;0.98;0.90;;;;;;;;;;4984332;28;20138;-66
2022/10/02 13:33:37;;;;;;;1.27;0.98;;;;;;;;;;4988883;28;20156;-67
2022/10/02 13:36:09;;;;;;;1.45;1.35;;;;;;;;;;4986093;28;20054;-66
2022/10/02 13:39:10;;;;;;;1.70;1.50;;;;;;;;;;4982294;28;20069;-67
2022/10/02 13:41:55;;;;;;;1.67;1.48;;;;;;;;;;4985602;28;20051;-73
2022/10/02 13:44:57;;;;;;;2.55;1.30;;;;;;;;;;4987558;28;20072;-76
2022/10/02 13:47:36;;;;;;;2.45;1.50;;;;;;;;;;4961771;28;20109;-74
2022/10/02 13:50:31;;;;;;;2.30;1.00;;;;;;;;;;4985925;28;20050;-75
2022/10/02 13:53:17;;;;;;;0.98;0.95;;;;;;;;;;4989901;28;20050;-70
2022/10/02 13:55:50;;;;;;;2.10;0.70;;;;;;;;;;4987579;28;20050;-70
2022/10/02 13:58:35;;;;;;;;;;;;;;;;;;4984787;28;20051;-69
2022/10/02 14:01:23;;;;;;;1.40;0.98;;;;;;;;;;4987626;28;19922;-68
2022/10/02 14:04:28;;;;;;;2.05;1.50;;;;;;;;;;4987187;28;20497;-74
2022/10/02 14:06:58;;;;;;;1.98;1.45;;;;;;;;;;4984499;28;20042;-73
2022/10/02 14:09:48;;;;;;;1.38;1.23;;;;;;;;;;4984928;28;20121;-73
2022/10/02 14:12:24;;;;;;;2.15;1.70;;;;;;;;;;4982296;28;20050;-67
2022/10/02 14:15:17;;;;;;;2.88;1.95;;;;;;;;;;4986538;28;20050;-69
2022/10/02 14:18:18;;;;;;;1.45;1.35;;;;;;;;;;4987257;28;20430;-70
2022/10/02 14:20:48;;;;;;;1.92;1.48;;;;;;;;;;4970681;28;20514;-69
2022/10/02 14:23:26;;;;;;;2.67;1.70;;;;;;;;;;4987078;28;20105;-69
2022/10/02 14:26:12;;;;;;;2.65;1.92;;;;;;;;;;4980590;28;20066;-71
2022/10/02 14:28:50;;;;;;;2.33;1.80;;;;;;;;;;4985291;28;20082;-71
2022/10/02 14:31:58;;;;;;;2.33;1.40;;;;;;;;;;4983685;28;20513;-72
2022/10/02 14:34:33;;;;;;;1.17;0.98;;;;;;;;;;4956272;28;20050;-65
2022/10/02 14:37:33;;;;;;;1.30;1.20;;;;;;;;;;4983943;28;20061;-68
2022/10/02 14:40:04;;;;;;;1.60;1.02;;;;;;;;;;4984202;28;20046;-67
2022/10/02 14:42:31;;;;;;;1.00;0.70;;;;;;;;;;4985255;28;20142;-69
2022/10/02 14:45:07;;;;;;;1.17;0.68;;;;;;;;;;4984398;28;21075;-68
2022/10/02 14:47:44;;;;;;;1.13;1.02;;;;;;;;;;4984924;28;20453;-69
2022/10/02 14:50:23;;;;;;;4.40;3.00;;;;;;;;;;4984515;28;20054;-69
2022/10/02 14:52:53;;;;;;;2.20;2.00;;;;;;;;;;4982581;28;20078;-71
2022/10/02 14:55:34;;;;;;;1.88;1.63;;;;;;;;;;4985739;28;20050;-65
2022/10/02 14:58:21;;;;;;;1.30;1.20;;;;;;;;;;4984079;28;20051;-65
2022/10/02 15:00:59;;;;;;;1.42;1.25;;;;;;;;;;4983736;28;20082;-66
2022/10/02 15:03:36;;;;;;;1.63;1.00;;;;;;;;;;4984981;28;20517;-70
2022/10/02 15:06:09;;;;;;;0.90;0.90;;;;;;;;;;4977098;28;20109;-71
2022/10/02 15:08:46;;;;;;;2.13;1.05;;;;;;;;;;4984618;28;20058;-72
2022/10/02 15:11:51;;;;;;;1.45;0.98;;;;;;;;;;4985617;28;20086;-69
2022/10/02 15:14:38;;;;;;;2.03;1.20;;;;;;;;;;4987165;28;20465;-68
2022/10/02 15:20:32;;;;;;;2.03;1.80;;;;;;;;;;4986655;28;20105;-71
2022/10/02 15:23:01;;;;;;;2.05;1.90;;;;;;;;;;4985811;28;20109;-67
2022/10/02 15:25:57;;;;;;;2.25;1.80;;;;;;;;;;4987315;28;20560;-73
2022/10/02 15:28:53;;;;;;;7.82;6.43;;;;;;;;;;4986572;28;20062;-72
2022/10/02 15:31:25;;;;;;;9.48;7.05;;;;;;;;;;4985787;28;20050;-73
2022/10/02 15:33:57;;;;;;;8.10;6.53;;;;;;;;;;4982281;28;20454;-73
2022/10/02 15:36:46;;;;;;;6.97;5.53;;;;;;;;;;4981687;28;20128;-71
2022/10/02 15:39:51;;;;;;;14.70;10.95;;;;;;;;;;4984492;28;20050;-77
2022/10/02 15:42:29;;;;;;;13.88;10.02;;;;;;;;;;4964935;28;20061;-76
2022/10/02 15:45:17;;;;;;;20.48;14.38;;;;;;;;;;4985353;28;20509;-75
2022/10/02 15:47:55;;;;;;;21.17;15.52;;;;;;;;;;4985798;28;20094;-71
2022/10/02 15:50:27;;;;;;;6.10;4.68;;;;;;;;;;4969685;28;20506;-68
2022/10/02 15:53:01;;;;;;;5.15;3.55;;;;;;;;;;4983538;28;20046;-65
2022/10/02 15:55:41;;;;;;;4.43;3.55;;;;;;;;;;4981831;28;20419;-65
2022/10/02 15:58:31;;;;;;;3.55;3.25;;;;;;;;;;4985644;28;20324;-66
2022/10/02 16:01:15;;;;;;;3.95;3.30;;;;;;;;;;4984802;28;20050;-67
2022/10/02 16:03:48;;;;;;;6.57;4.43;;;;;;;;;;4981310;28;20478;-72
2022/10/02 16:06:34;;;;;;;;;;;;;;;;;;4984273;28;20057;-73
2022/10/02 16:09:16;;;;;;;5.80;4.50;;;;;;;;;;4981747;28;20023;-67
2022/10/02 16:12:14;;;;;;;4.30;2.58;;;;;;;;;;4983289;28;20046;-70
2022/10/02 16:15:09;;;;;;;3.80;2.53;;;;;;;;;;4966437;28;20086;-68
2022/10/02 16:17:51;;;;;;;7.25;4.90;;;;;;;;;;4979169;28;20062;-67
2022/10/02 16:20:39;;;;;;;8.48;5.95;;;;;;;;;;4983444;28;20050;-67
2022/10/02 16:23:27;;;;;;;9.85;6.60;;;;;;;;;;4981464;28;20460;-67
2022/10/02 16:26:04;;;;;;;8.95;7.20;;;;;;;;;;4980728;28;20074;-66